sensor_id;sensor_type;location;lat;lon;timestamp;pressure;altitude;pressure_sealevel;temperature;humidity
17521;BME280;8878;-33.370;-70.552;2022-07-23T00:01:38;92152.91;;;11.80;69.58
17521;BME280;8878;-33.370;-70.552;2022-07-23T00:04:08;92158.75;;;11.77;69.68
17521;BME280;8878;-33.370;-70.552;2022-07-23T00:06:37;92169.84;;;11.74;69.88
17521;BME280;8878;-33.370;-70.552;2022-07-23T00:09:07;92168.00;;;11.69;69.66
17521;BME280;8878;-33.370;-70.552;2022-07-23T00:11:36;92174.38;;;11.63;69.68
17521;BME280;8878;-33.370;-70.552;2022-07-23T00:14:08;92177.28;;;11.62;69.83
17521;BME280;8878;-33.370;-70.552;2022-07-23T00:16:37;92187.06;;;11.61;69.95
17521;BME280;8878;-33.370;-70.552;2022-07-23T00:19:07;92192.31;;;11.66;69.73
17521;BME280;8878;-33.370;-70.552;2022-07-23T00:21:36;92198.66;;;11.75;68.70
17521;BME280;8878;-33.370;-70.552;2022-07-23T00:24:06;92197.53;;;11.87;67.88
17521;BME280;8878;-33.370;-70.552;2022-07-23T00:26:36;92200.47;;;11.85;68.83
17521;BME280;8878;-33.370;-70.552;2022-07-23T00:29:07;92208.34;;;11.95;69.40
17521;BME280;8878;-33.370;-70.552;2022-07-23T00:31:36;92213.06;;;12.03;69.75
17521;BME280;8878;-33.370;-70.552;2022-07-23T00:34:06;92206.09;;;12.18;70.21
17521;BME280;8878;-33.370;-70.552;2022-07-23T00:36:35;92213.78;;;12.19;70.17
17521;BME280;8878;-33.370;-70.552;2022-07-23T00:39:05;92206.41;;;12.11;70.36
17521;BME280;8878;-33.370;-70.552;2022-07-23T00:41:34;92209.03;;;12.16;69.58
17521;BME280;8878;-33.370;-70.552;2022-07-23T00:44:22;92201.38;;;12.09;71.61
17521;BME280;8878;-33.370;-70.552;2022-07-23T00:46:53;92205.22;;;11.88;72.28
17521;BME280;8878;-33.370;-70.552;2022-07-23T00:49:24;92207.88;;;11.83;72.54
17521;BME280;8878;-33.370;-70.552;2022-07-23T00:51:54;92220.09;;;11.64;72.00
17521;BME280;8878;-33.370;-70.552;2022-07-23T00:54:25;92225.66;;;11.52;71.11
17521;BME280;8878;-33.370;-70.552;2022-07-23T00:56:54;92231.44;;;11.59;69.63
17521;BME280;8878;-33.370;-70.552;2022-07-23T00:59:26;92229.34;;;11.61;68.76
17521;BME280;8878;-33.370;-70.552;2022-07-23T01:01:56;92218.78;;;11.61;68.15
17521;BME280;8878;-33.370;-70.552;2022-07-23T01:04:25;92233.31;;;11.54;68.15
17521;BME280;8878;-33.370;-70.552;2022-07-23T01:06:55;92231.75;;;11.53;69.29
17521;BME280;8878;-33.370;-70.552;2022-07-23T01:09:24;92226.72;;;11.56;68.98
17521;BME280;8878;-33.370;-70.552;2022-07-23T01:11:55;92235.16;;;11.58;69.82
17521;BME280;8878;-33.370;-70.552;2022-07-23T01:14:26;92233.91;;;11.41;70.68
17521;BME280;8878;-33.370;-70.552;2022-07-23T01:16:56;92224.41;;;11.24;70.32
17521;BME280;8878;-33.370;-70.552;2022-07-23T01:19:26;92228.66;;;11.25;71.46
17521;BME280;8878;-33.370;-70.552;2022-07-23T01:21:56;92233.44;;;11.13;71.55
17521;BME280;8878;-33.370;-70.552;2022-07-23T01:24:29;92243.19;;;11.13;71.71
17521;BME280;8878;-33.370;-70.552;2022-07-23T01:26:58;92247.41;;;11.09;71.29
17521;BME280;8878;-33.370;-70.552;2022-07-23T01:29:28;92243.75;;;10.99;72.99
17521;BME280;8878;-33.370;-70.552;2022-07-23T01:31:57;92250.06;;;10.98;72.60
17521;BME280;8878;-33.370;-70.552;2022-07-23T01:34:27;92255.34;;;10.98;72.51
17521;BME280;8878;-33.370;-70.552;2022-07-23T01:36:56;92254.31;;;10.99;72.84
17521;BME280;8878;-33.370;-70.552;2022-07-23T01:39:27;92250.06;;;10.88;71.66
17521;BME280;8878;-33.370;-70.552;2022-07-23T01:41:57;92250.09;;;10.93;71.38
17521;BME280;8878;-33.370;-70.552;2022-07-23T01:44:26;92256.41;;;10.92;72.24
17521;BME280;8878;-33.370;-70.552;2022-07-23T01:46:56;92251.91;;;10.83;72.69
17521;BME280;8878;-33.370;-70.552;2022-07-23T01:49:25;92256.94;;;10.79;73.99
17521;BME280;8878;-33.370;-70.552;2022-07-23T01:51:56;92259.56;;;10.69;73.92
17521;BME280;8878;-33.370;-70.552;2022-07-23T01:54:31;92260.09;;;10.61;74.83
17521;BME280;8878;-33.370;-70.552;2022-07-23T01:57:01;92254.81;;;10.61;74.81
17521;BME280;8878;-33.370;-70.552;2022-07-23T01:59:31;92262.72;;;10.51;75.41
17521;BME280;8878;-33.370;-70.552;2022-07-23T02:02:01;92260.56;;;10.33;76.61
17521;BME280;8878;-33.370;-70.552;2022-07-23T02:04:30;92263.75;;;10.35;76.34
17521;BME280;8878;-33.370;-70.552;2022-07-23T02:07:02;92265.34;;;10.36;76.29
17521;BME280;8878;-33.370;-70.552;2022-07-23T02:09:33;92270.59;;;10.31;76.08
17521;BME280;8878;-33.370;-70.552;2022-07-23T02:12:03;92262.66;;;10.26;74.93
17521;BME280;8878;-33.370;-70.552;2022-07-23T02:14:33;92265.31;;;10.31;75.33
17521;BME280;8878;-33.370;-70.552;2022-07-23T02:17:03;92271.88;;;10.23;75.14
17521;BME280;8878;-33.370;-70.552;2022-07-23T02:19:32;92263.19;;;10.17;75.45
17521;BME280;8878;-33.370;-70.552;2022-07-23T02:22:02;92271.53;;;9.94;76.37
17521;BME280;8878;-33.370;-70.552;2022-07-23T02:24:33;92265.19;;;9.95;76.33
17521;BME280;8878;-33.370;-70.552;2022-07-23T02:27:03;92267.63;;;10.07;75.79
17521;BME280;8878;-33.370;-70.552;2022-07-23T02:29:33;92266.84;;;10.16;75.49
17521;BME280;8878;-33.370;-70.552;2022-07-23T02:32:02;92271.13;;;10.23;75.25
17521;BME280;8878;-33.370;-70.552;2022-07-23T02:34:32;92263.72;;;10.25;75.27
17521;BME280;8878;-33.370;-70.552;2022-07-23T02:37:01;92278.50;;;10.20;74.55
17521;BME280;8878;-33.370;-70.552;2022-07-23T02:39:33;92273.72;;;10.17;74.25
17521;BME280;8878;-33.370;-70.552;2022-07-23T02:42:03;92276.34;;;10.17;74.30
17521;BME280;8878;-33.370;-70.552;2022-07-23T02:44:32;92267.66;;;10.17;74.48
17521;BME280;8878;-33.370;-70.552;2022-07-23T02:47:02;92278.09;;;9.97;74.98
17521;BME280;8878;-33.370;-70.552;2022-07-23T02:49:31;92269.88;;;9.78;75.97
17521;BME280;8878;-33.370;-70.552;2022-07-23T02:52:01;92274.06;;;9.74;76.70
17521;BME280;8878;-33.370;-70.552;2022-07-23T02:54:30;92276.75;;;9.84;77.45
17521;BME280;8878;-33.370;-70.552;2022-07-23T02:57:02;92270.44;;;9.90;77.78
17521;BME280;8878;-33.370;-70.552;2022-07-23T02:59:31;92262.28;;;9.87;77.21
17521;BME280;8878;-33.370;-70.552;2022-07-23T03:02:01;92254.94;;;9.94;77.66
17521;BME280;8878;-33.370;-70.552;2022-07-23T03:04:30;92247.03;;;9.99;77.24
17521;BME280;8878;-33.370;-70.552;2022-07-23T03:07:00;92244.94;;;10.01;77.55
17521;BME280;8878;-33.370;-70.552;2022-07-23T03:09:29;92247.28;;;10.02;77.15
17521;BME280;8878;-33.370;-70.552;2022-07-23T03:12:00;92250.44;;;9.99;77.63
17521;BME280;8878;-33.370;-70.552;2022-07-23T03:14:30;92247.53;;;9.91;77.53
17521;BME280;8878;-33.370;-70.552;2022-07-23T03:16:59;92252.00;;;9.90;77.10
17521;BME280;8878;-33.370;-70.552;2022-07-23T03:19:29;92249.38;;;9.90;76.62
17521;BME280;8878;-33.370;-70.552;2022-07-23T03:21:59;92255.13;;;9.77;76.18
17521;BME280;8878;-33.370;-70.552;2022-07-23T03:24:29;92249.56;;;9.73;77.09
17521;BME280;8878;-33.370;-70.552;2022-07-23T03:27:13;92241.66;;;9.73;77.34
17521;BME280;8878;-33.370;-70.552;2022-07-23T03:29:42;92250.88;;;9.71;77.70
17521;BME280;8878;-33.370;-70.552;2022-07-23T03:32:12;92252.41;;;9.62;77.24
17521;BME280;8878;-33.370;-70.552;2022-07-23T03:34:41;92250.81;;;9.61;77.11
17521;BME280;8878;-33.370;-70.552;2022-07-23T03:37:12;92242.41;;;9.64;77.15
17521;BME280;8878;-33.370;-70.552;2022-07-23T03:39:41;92240.34;;;9.66;77.77
17521;BME280;8878;-33.370;-70.552;2022-07-23T03:42:12;92246.91;;;9.73;77.82
17521;BME280;8878;-33.370;-70.552;2022-07-23T03:44:42;92252.41;;;9.57;77.98
17521;BME280;8878;-33.370;-70.552;2022-07-23T03:47:11;92252.66;;;9.60;78.69
17521;BME280;8878;-33.370;-70.552;2022-07-23T03:49:41;92242.94;;;9.61;77.94
17521;BME280;8878;-33.370;-70.552;2022-07-23T03:52:10;92251.38;;;9.63;78.63
17521;BME280;8878;-33.370;-70.552;2022-07-23T03:54:40;92254.25;;;9.61;78.54
17521;BME280;8878;-33.370;-70.552;2022-07-23T03:57:11;92255.59;;;9.59;79.22
17521;BME280;8878;-33.370;-70.552;2022-07-23T03:59:41;92244.19;;;9.48;79.52
17521;BME280;8878;-33.370;-70.552;2022-07-23T04:02:10;92248.66;;;9.48;79.78
17521;BME280;8878;-33.370;-70.552;2022-07-23T04:04:40;92250.25;;;9.49;79.81
17521;BME280;8878;-33.370;-70.552;2022-07-23T04:07:09;92248.19;;;9.56;80.71
17521;BME280;8878;-33.370;-70.552;2022-07-23T04:09:39;92238.22;;;9.68;80.15
17521;BME280;8878;-33.370;-70.552;2022-07-23T04:12:08;92229.00;;;9.65;79.53
17521;BME280;8878;-33.370;-70.552;2022-07-23T04:14:40;92231.09;;;9.58;79.62
17521;BME280;8878;-33.370;-70.552;2022-07-23T04:17:10;92228.97;;;9.60;80.40
17521;BME280;8878;-33.370;-70.552;2022-07-23T04:19:39;92227.19;;;9.71;80.49
17521;BME280;8878;-33.370;-70.552;2022-07-23T04:22:11;92220.38;;;9.85;80.25
17521;BME280;8878;-33.370;-70.552;2022-07-23T04:24:40;92231.91;;;9.74;80.28
17521;BME280;8878;-33.370;-70.552;2022-07-23T04:27:09;92242.66;;;9.57;80.78
17521;BME280;8878;-33.370;-70.552;2022-07-23T04:29:41;92232.31;;;9.40;81.50
17521;BME280;8878;-33.370;-70.552;2022-07-23T04:32:10;92245.53;;;9.51;81.68
17521;BME280;8878;-33.370;-70.552;2022-07-23T04:34:39;92237.72;;;9.71;82.08
17521;BME280;8878;-33.370;-70.552;2022-07-23T04:37:09;92244.34;;;9.89;80.99
17521;BME280;8878;-33.370;-70.552;2022-07-23T04:39:38;92240.97;;;10.03;80.15
17521;BME280;8878;-33.370;-70.552;2022-07-23T04:42:08;92230.47;;;10.13;80.20
17521;BME280;8878;-33.370;-70.552;2022-07-23T04:44:39;92232.09;;;10.25;79.41
17521;BME280;8878;-33.370;-70.552;2022-07-23T04:47:08;92233.41;;;10.32;79.05
17521;BME280;8878;-33.370;-70.552;2022-07-23T04:49:38;92238.69;;;10.22;79.38
17521;BME280;8878;-33.370;-70.552;2022-07-23T04:52:07;92232.31;;;10.13;79.65
17521;BME280;8878;-33.370;-70.552;2022-07-23T04:54:37;92247.06;;;10.14;80.17
17521;BME280;8878;-33.370;-70.552;2022-07-23T04:57:06;92247.03;;;10.04;81.14
17521;BME280;8878;-33.370;-70.552;2022-07-23T04:59:36;92248.28;;;9.81;81.87
17521;BME280;8878;-33.370;-70.552;2022-07-23T05:02:08;92257.44;;;9.68;82.42
17521;BME280;8878;-33.370;-70.552;2022-07-23T05:04:37;92246.34;;;9.61;82.57
17521;BME280;8878;-33.370;-70.552;2022-07-23T05:07:08;92249.75;;;9.52;82.52
17521;BME280;8878;-33.370;-70.552;2022-07-23T05:09:38;92247.06;;;9.41;83.02
17521;BME280;8878;-33.370;-70.552;2022-07-23T05:12:07;92262.34;;;9.45;83.72
17521;BME280;8878;-33.370;-70.552;2022-07-23T05:14:37;92256.78;;;9.36;83.33
17521;BME280;8878;-33.370;-70.552;2022-07-23T05:17:09;92264.94;;;9.34;83.75
17521;BME280;8878;-33.370;-70.552;2022-07-23T05:19:39;92275.94;;;9.31;83.97
17521;BME280;8878;-33.370;-70.552;2022-07-23T05:22:08;92276.94;;;9.20;83.85
17521;BME280;8878;-33.370;-70.552;2022-07-23T05:24:38;92289.00;;;9.11;84.55
17521;BME280;8878;-33.370;-70.552;2022-07-23T05:27:07;92293.66;;;8.99;84.75
17521;BME280;8878;-33.370;-70.552;2022-07-23T05:29:37;92296.38;;;9.09;85.56
17521;BME280;8878;-33.370;-70.552;2022-07-23T05:32:08;92298.00;;;9.20;85.64
17521;BME280;8878;-33.370;-70.552;2022-07-23T05:34:38;92299.13;;;9.29;85.58
17521;BME280;8878;-33.370;-70.552;2022-07-23T05:37:08;92289.91;;;9.32;86.17
17521;BME280;8878;-33.370;-70.552;2022-07-23T05:39:37;92294.34;;;9.26;85.66
17521;BME280;8878;-33.370;-70.552;2022-07-23T05:42:07;92292.75;;;9.20;86.68
17521;BME280;8878;-33.370;-70.552;2022-07-23T05:44:36;92293.22;;;9.17;87.31
17521;BME280;8878;-33.370;-70.552;2022-07-23T05:47:06;92301.94;;;9.18;87.43
17521;BME280;8878;-33.370;-70.552;2022-07-23T05:49:37;92303.97;;;9.11;86.84
17521;BME280;8878;-33.370;-70.552;2022-07-23T05:52:07;92297.34;;;9.03;86.97
17521;BME280;8878;-33.370;-70.552;2022-07-23T05:54:37;92285.56;;;8.74;86.88
17521;BME280;8878;-33.370;-70.552;2022-07-23T05:57:07;92294.72;;;8.66;88.55
17521;BME280;8878;-33.370;-70.552;2022-07-23T05:59:36;92274.03;;;8.80;88.78
17521;BME280;8878;-33.370;-70.552;2022-07-23T06:02:06;92256.44;;;8.85;86.54
17521;BME280;8878;-33.370;-70.552;2022-07-23T06:04:37;92244.06;;;8.81;85.14
17521;BME280;8878;-33.370;-70.552;2022-07-23T06:07:07;92230.81;;;8.71;84.08
17521;BME280;8878;-33.370;-70.552;2022-07-23T06:09:36;92233.44;;;8.66;84.53
17521;BME280;8878;-33.370;-70.552;2022-07-23T06:12:07;92218.13;;;8.62;84.66
17521;BME280;8878;-33.370;-70.552;2022-07-23T06:14:36;92202.59;;;8.61;85.06
17521;BME280;8878;-33.370;-70.552;2022-07-23T06:17:06;92189.88;;;8.80;86.05
17521;BME280;8878;-33.370;-70.552;2022-07-23T06:19:37;92175.88;;;9.16;86.75
17521;BME280;8878;-33.370;-70.552;2022-07-23T06:22:07;92151.97;;;9.33;86.72
17521;BME280;8878;-33.370;-70.552;2022-07-23T06:24:36;92148.66;;;9.63;86.33
17521;BME280;8878;-33.370;-70.552;2022-07-23T06:27:06;92137.09;;;9.84;84.95
17521;BME280;8878;-33.370;-70.552;2022-07-23T06:29:36;92130.53;;;9.97;84.54
17521;BME280;8878;-33.370;-70.552;2022-07-23T06:32:07;92139.28;;;10.23;83.70
17521;BME280;8878;-33.370;-70.552;2022-07-23T06:34:39;92129.78;;;10.47;81.13
17521;BME280;8878;-33.370;-70.552;2022-07-23T06:37:09;92133.72;;;10.59;78.81
17521;BME280;8878;-33.370;-70.552;2022-07-23T06:39:39;92132.94;;;10.69;77.12
17521;BME280;8878;-33.370;-70.552;2022-07-23T06:42:08;92136.09;;;10.71;76.13
17521;BME280;8878;-33.370;-70.552;2022-07-23T06:44:39;92148.22;;;10.67;75.75
17521;BME280;8878;-33.370;-70.552;2022-07-23T06:47:08;92130.53;;;10.68;74.34
17521;BME280;8878;-33.370;-70.552;2022-07-23T06:49:40;92130.78;;;10.81;73.17
17521;BME280;8878;-33.370;-70.552;2022-07-23T06:52:09;92126.53;;;10.95;73.10
17521;BME280;8878;-33.370;-70.552;2022-07-23T06:54:39;92131.81;;;10.95;72.27
17521;BME280;8878;-33.370;-70.552;2022-07-23T06:57:09;92130.78;;;10.86;73.09
17521;BME280;8878;-33.370;-70.552;2022-07-23T06:59:54;92134.50;;;10.60;74.05
17521;BME280;8878;-33.370;-70.552;2022-07-23T07:02:23;92137.44;;;10.43;75.13
17521;BME280;8878;-33.370;-70.552;2022-07-23T07:04:55;92134.00;;;10.28;76.10
17521;BME280;8878;-33.370;-70.552;2022-07-23T07:07:25;92123.16;;;10.09;77.42
17521;BME280;8878;-33.370;-70.552;2022-07-23T07:09:55;92124.19;;;9.98;77.39
17521;BME280;8878;-33.370;-70.552;2022-07-23T07:12:24;92130.75;;;9.75;78.33
17521;BME280;8878;-33.370;-70.552;2022-07-23T07:14:54;92136.03;;;9.70;78.76
17521;BME280;8878;-33.370;-70.552;2022-07-23T07:17:24;92126.47;;;9.49;79.12
17521;BME280;8878;-33.370;-70.552;2022-07-23T07:19:56;92124.38;;;9.51;80.35
17521;BME280;8878;-33.370;-70.552;2022-07-23T07:22:27;92124.66;;;9.54;80.33
17521;BME280;8878;-33.370;-70.552;2022-07-23T07:24:56;92119.63;;;9.37;80.27
17521;BME280;8878;-33.370;-70.552;2022-07-23T07:27:26;92112.22;;;9.39;81.02
17521;BME280;8878;-33.370;-70.552;2022-07-23T07:29:56;92118.56;;;9.43;81.33
17521;BME280;8878;-33.370;-70.552;2022-07-23T07:32:26;92122.78;;;9.45;80.72
17521;BME280;8878;-33.370;-70.552;2022-07-23T07:34:57;92137.19;;;9.27;80.89
17521;BME280;8878;-33.370;-70.552;2022-07-23T07:37:26;92136.66;;;9.20;81.33
17521;BME280;8878;-33.370;-70.552;2022-07-23T07:39:56;92137.28;;;9.47;81.20
17521;BME280;8878;-33.370;-70.552;2022-07-23T07:42:26;92152.31;;;9.62;80.11
17521;BME280;8878;-33.370;-70.552;2022-07-23T07:44:55;92148.66;;;9.63;80.20
17521;BME280;8878;-33.370;-70.552;2022-07-23T07:47:24;92162.78;;;9.36;79.69
17521;BME280;8878;-33.370;-70.552;2022-07-23T07:49:56;92152.47;;;9.25;80.96
17521;BME280;8878;-33.370;-70.552;2022-07-23T07:52:25;92148.78;;;9.26;81.10
17521;BME280;8878;-33.370;-70.552;2022-07-23T07:54:55;92146.16;;;9.31;81.28
17521;BME280;8878;-33.370;-70.552;2022-07-23T07:57:25;92135.59;;;9.16;80.99
17521;BME280;8878;-33.370;-70.552;2022-07-23T07:59:54;92127.97;;;9.24;81.10
17521;BME280;8878;-33.370;-70.552;2022-07-23T08:02:24;92122.19;;;9.22;81.67
17521;BME280;8878;-33.370;-70.552;2022-07-23T08:04:56;92110.00;;;9.06;82.05
17521;BME280;8878;-33.370;-70.552;2022-07-23T08:07:26;92105.16;;;8.83;82.61
17521;BME280;8878;-33.370;-70.552;2022-07-23T08:13:18;92114.53;;;8.63;85.13
17521;BME280;8878;-33.370;-70.552;2022-07-23T08:15:47;92111.91;;;8.63;85.70
17521;BME280;8878;-33.370;-70.552;2022-07-23T08:18:17;92123.00;;;8.71;85.60
17521;BME280;8878;-33.370;-70.552;2022-07-23T08:20:49;92125.69;;;8.81;85.40
17521;BME280;8878;-33.370;-70.552;2022-07-23T08:23:19;92138.84;;;8.81;84.41
17521;BME280;8878;-33.370;-70.552;2022-07-23T08:25:48;92144.06;;;8.76;84.06
17521;BME280;8878;-33.370;-70.552;2022-07-23T08:28:18;92142.69;;;8.68;84.25
17521;BME280;8878;-33.370;-70.552;2022-07-23T08:30:48;92151.25;;;8.48;83.86
17521;BME280;8878;-33.370;-70.552;2022-07-23T08:33:18;92158.56;;;8.41;84.65
17521;BME280;8878;-33.370;-70.552;2022-07-23T08:35:50;92164.78;;;8.67;83.42
17521;BME280;8878;-33.370;-70.552;2022-07-23T08:38:21;92170.69;;;8.89;82.34
17521;BME280;8878;-33.370;-70.552;2022-07-23T08:40:53;92174.09;;;8.85;84.06
17521;BME280;8878;-33.370;-70.552;2022-07-23T08:43:25;92171.50;;;8.90;83.80
17521;BME280;8878;-33.370;-70.552;2022-07-23T08:45:57;92180.41;;;8.84;84.07
17521;BME280;8878;-33.370;-70.552;2022-07-23T08:48:29;92179.84;;;8.77;85.78
17521;BME280;8878;-33.370;-70.552;2022-07-23T08:51:02;92194.03;;;8.76;85.29
17521;BME280;8878;-33.370;-70.552;2022-07-23T08:53:33;92198.28;;;8.82;85.15
17521;BME280;8878;-33.370;-70.552;2022-07-23T08:56:05;92191.16;;;8.77;84.28
17521;BME280;8878;-33.370;-70.552;2022-07-23T08:58:35;92179.84;;;8.82;85.72
17521;BME280;8878;-33.370;-70.552;2022-07-23T09:01:05;92175.88;;;8.74;85.35
17521;BME280;8878;-33.370;-70.552;2022-07-23T09:03:36;92171.59;;;8.63;85.77
17521;BME280;8878;-33.370;-70.552;2022-07-23T09:06:08;92166.75;;;8.45;85.29
17521;BME280;8878;-33.370;-70.552;2022-07-23T09:08:39;92161.03;;;8.26;86.47
17521;BME280;8878;-33.370;-70.552;2022-07-23T09:11:09;92171.50;;;8.21;87.58
17521;BME280;8878;-33.370;-70.552;2022-07-23T09:13:40;92168.28;;;8.09;88.42
17521;BME280;8878;-33.370;-70.552;2022-07-23T09:16:12;92164.53;;;8.05;90.17
17521;BME280;8878;-33.370;-70.552;2022-07-23T09:18:44;92160.84;;;8.01;91.21
17521;BME280;8878;-33.370;-70.552;2022-07-23T09:21:21;92165.69;;;8.14;91.31
17521;BME280;8878;-33.370;-70.552;2022-07-23T09:23:55;92161.03;;;8.26;90.41
17521;BME280;8878;-33.370;-70.552;2022-07-23T09:26:30;92162.06;;;8.25;91.74
17521;BME280;8878;-33.370;-70.552;2022-07-23T09:29:11;92159.03;;;8.33;90.75
17521;BME280;8878;-33.370;-70.552;2022-07-23T09:31:47;92150.13;;;8.39;90.17
17521;BME280;8878;-33.370;-70.552;2022-07-23T09:34:19;92146.22;;;8.42;89.47
17521;BME280;8878;-33.370;-70.552;2022-07-23T09:36:53;92154.09;;;8.42;88.64
17521;BME280;8878;-33.370;-70.552;2022-07-23T09:39:28;92152.75;;;8.39;88.63
17521;BME280;8878;-33.370;-70.552;2022-07-23T09:41:58;92151.19;;;8.38;88.58
17521;BME280;8878;-33.370;-70.552;2022-07-23T09:44:28;92148.38;;;8.50;88.39
17521;BME280;8878;-33.370;-70.552;2022-07-23T09:47:00;92145.75;;;8.55;87.97
17521;BME280;8878;-33.370;-70.552;2022-07-23T09:49:30;92131.56;;;8.56;87.80
17521;BME280;8878;-33.370;-70.552;2022-07-23T09:52:02;92127.09;;;8.51;88.16
17521;BME280;8878;-33.370;-70.552;2022-07-23T09:54:33;92128.34;;;8.44;88.85
17521;BME280;8878;-33.370;-70.552;2022-07-23T09:57:05;92139.34;;;8.36;89.05
17521;BME280;8878;-33.370;-70.552;2022-07-23T09:59:37;92142.16;;;8.29;88.55
17521;BME280;8878;-33.370;-70.552;2022-07-23T10:02:08;92152.66;;;8.29;88.71
17521;BME280;8878;-33.370;-70.552;2022-07-23T10:04:40;92156.38;;;8.33;87.78
17521;BME280;8878;-33.370;-70.552;2022-07-23T10:07:11;92150.34;;;8.33;87.78
17521;BME280;8878;-33.370;-70.552;2022-07-23T10:09:43;92142.50;;;8.38;87.53
17521;BME280;8878;-33.370;-70.552;2022-07-23T10:12:14;92132.97;;;8.32;87.10
17521;BME280;8878;-33.370;-70.552;2022-07-23T10:14:57;92127.16;;;8.30;86.48
17521;BME280;8878;-33.370;-70.552;2022-07-23T10:17:28;92132.34;;;8.19;86.40
17521;BME280;8878;-33.370;-70.552;2022-07-23T10:19:58;92142.56;;;8.16;86.45
17521;BME280;8878;-33.370;-70.552;2022-07-23T10:22:32;92146.81;;;8.22;86.21
17521;BME280;8878;-33.370;-70.552;2022-07-23T10:25:13;92148.44;;;8.28;86.26
17521;BME280;8878;-33.370;-70.552;2022-07-23T10:27:59;92145.81;;;8.28;86.40
17521;BME280;8878;-33.370;-70.552;2022-07-23T10:30:39;92138.38;;;8.20;86.30
17521;BME280;8878;-33.370;-70.552;2022-07-23T10:33:21;92133.94;;;8.20;86.13
17521;BME280;8878;-33.370;-70.552;2022-07-23T10:35:59;92143.19;;;8.28;85.68
17521;BME280;8878;-33.370;-70.552;2022-07-23T10:38:37;92139.19;;;8.20;85.42
17521;BME280;8878;-33.370;-70.552;2022-07-23T10:41:10;92144.44;;;8.20;85.44
17521;BME280;8878;-33.370;-70.552;2022-07-23T10:43:40;92144.78;;;8.29;85.44
17521;BME280;8878;-33.370;-70.552;2022-07-23T10:46:23;92151.56;;;8.25;85.14
17521;BME280;8878;-33.370;-70.552;2022-07-23T10:49:24;92163.59;;;8.16;85.98
17521;BME280;8878;-33.370;-70.552;2022-07-23T10:52:22;92168.56;;;8.17;85.72
17521;BME280;8878;-33.370;-70.552;2022-07-23T10:54:55;92166.16;;;8.11;85.60
17521;BME280;8878;-33.370;-70.552;2022-07-23T10:57:26;92165.69;;;8.14;85.93
17521;BME280;8878;-33.370;-70.552;2022-07-23T11:00:15;92164.66;;;8.20;86.02
17521;BME280;8878;-33.370;-70.552;2022-07-23T11:02:46;92161.78;;;8.21;86.29
17521;BME280;8878;-33.370;-70.552;2022-07-23T11:05:16;92163.16;;;8.24;85.65
17521;BME280;8878;-33.370;-70.552;2022-07-23T11:08:14;92156.22;;;8.18;85.57
17521;BME280;8878;-33.370;-70.552;2022-07-23T11:10:48;92148.28;;;8.08;85.21
17521;BME280;8878;-33.370;-70.552;2022-07-23T11:13:46;92133.66;;;7.90;85.30
17521;BME280;8878;-33.370;-70.552;2022-07-23T11:16:25;92130.22;;;7.84;85.96
17521;BME280;8878;-33.370;-70.552;2022-07-23T11:19:02;92131.91;;;7.96;85.14
17521;BME280;8878;-33.370;-70.552;2022-07-23T11:24:25;92133.59;;;8.12;83.55
17521;BME280;8878;-33.370;-70.552;2022-07-23T11:27:01;92136.31;;;8.22;82.92
17521;BME280;8878;-33.370;-70.552;2022-07-23T11:29:47;92151.19;;;8.38;82.41
17521;BME280;8878;-33.370;-70.552;2022-07-23T11:32:36;92160.91;;;8.38;81.14
17521;BME280;8878;-33.370;-70.552;2022-07-23T11:35:24;92149.63;;;8.42;80.94
17521;BME280;8878;-33.370;-70.552;2022-07-23T11:38:02;92162.06;;;8.52;80.71
17521;BME280;8878;-33.370;-70.552;2022-07-23T11:40:32;92164.16;;;8.50;80.43
17521;BME280;8878;-33.370;-70.552;2022-07-23T11:43:05;92168.63;;;8.54;81.10
17521;BME280;8878;-33.370;-70.552;2022-07-23T11:45:37;92169.41;;;8.50;80.73
17521;BME280;8878;-33.370;-70.552;2022-07-23T11:48:08;92172.22;;;8.38;81.37
17521;BME280;8878;-33.370;-70.552;2022-07-23T11:50:38;92178.16;;;8.29;81.64
17521;BME280;8878;-33.370;-70.552;2022-07-23T11:53:08;92179.59;;;8.14;82.18
17521;BME280;8878;-33.370;-70.552;2022-07-23T11:55:37;92191.38;;;8.07;82.70
17521;BME280;8878;-33.370;-70.552;2022-07-23T11:58:09;92208.34;;;8.26;81.96
17521;BME280;8878;-33.370;-70.552;2022-07-23T12:00:41;92231.03;;;8.32;81.85
17521;BME280;8878;-33.370;-70.552;2022-07-23T12:03:10;92221.09;;;8.39;82.10
17521;BME280;8878;-33.370;-70.552;2022-07-23T12:05:40;92234.00;;;8.41;82.96
17521;BME280;8878;-33.370;-70.552;2022-07-23T12:08:10;92247.34;;;8.34;82.86
17521;BME280;8878;-33.370;-70.552;2022-07-23T12:10:41;92247.63;;;8.11;83.91
17521;BME280;8878;-33.370;-70.552;2022-07-23T12:13:13;92261.69;;;8.00;85.10
17521;BME280;8878;-33.370;-70.552;2022-07-23T12:15:45;92262.94;;;7.92;87.34
17521;BME280;8878;-33.370;-70.552;2022-07-23T12:18:16;92267.81;;;7.83;90.19
17521;BME280;8878;-33.370;-70.552;2022-07-23T12:20:48;92279.88;;;7.79;92.54
17521;BME280;8878;-33.370;-70.552;2022-07-23T12:23:20;92285.13;;;7.79;95.36
17521;BME280;8878;-33.370;-70.552;2022-07-23T12:25:50;92295.72;;;7.90;96.26
17521;BME280;8878;-33.370;-70.552;2022-07-23T12:28:27;92301.31;;;7.93;96.28
17521;BME280;8878;-33.370;-70.552;2022-07-23T12:30:57;92290.78;;;7.93;96.49
17521;BME280;8878;-33.370;-70.552;2022-07-23T12:33:28;92294.59;;;8.02;98.24
17521;BME280;8878;-33.370;-70.552;2022-07-23T12:35:59;92298.00;;;8.03;99.34
17521;BME280;8878;-33.370;-70.552;2022-07-23T12:38:39;92301.09;;;8.00;98.93
17521;BME280;8878;-33.370;-70.552;2022-07-23T12:41:09;92302.16;;;7.99;98.72
17521;BME280;8878;-33.370;-70.552;2022-07-23T12:43:44;92315.31;;;8.04;98.56
17521;BME280;8878;-33.370;-70.552;2022-07-23T12:46:15;92311.00;;;8.14;98.65
17521;BME280;8878;-33.370;-70.552;2022-07-23T12:48:52;92308.16;;;8.21;98.82
17521;BME280;8878;-33.370;-70.552;2022-07-23T12:51:23;92301.50;;;8.35;98.97
17521;BME280;8878;-33.370;-70.552;2022-07-23T12:53:54;92301.09;;;8.48;98.79
17521;BME280;8878;-33.370;-70.552;2022-07-23T12:56:28;92304.56;;;8.54;97.78
17521;BME280;8878;-33.370;-70.552;2022-07-23T12:59:05;92309.34;;;8.57;98.33
17521;BME280;8878;-33.370;-70.552;2022-07-23T13:01:37;92307.50;;;8.57;97.55
17521;BME280;8878;-33.370;-70.552;2022-07-23T13:04:10;92315.03;;;8.76;97.15
17521;BME280;8878;-33.370;-70.552;2022-07-23T13:06:40;92313.28;;;8.86;95.04
17521;BME280;8878;-33.370;-70.552;2022-07-23T13:09:13;92310.44;;;8.93;95.39
17521;BME280;8878;-33.370;-70.552;2022-07-23T13:11:44;92308.97;;;9.07;94.67
17521;BME280;8878;-33.370;-70.552;2022-07-23T13:14:16;92316.88;;;9.07;93.46
17521;BME280;8878;-33.370;-70.552;2022-07-23T13:16:46;92321.41;;;9.17;92.71